Terminal Aerodrome Forecast
Issued by NWS

Home | Current Version | Previous Version | Text Only | Print | Product List | Glossary Off
Versions: 1 2 3 4 5 6 7 8 9 10 11 12 13 14 15 16 17 18 19 20 21

000
FTUS43 KMPX 160520
TAFRWF
TAF
KRWF 160520Z 1606/1706 33007KT P6SM BKN015
     FM160900 VRB04KT P6SM BKN015
     FM161200 VRB03KT P6SM BKN035
     FM161500 14008KT P6SM OVC110
     FM162000 14017G26KT P6SM BKN200=

USA.gov is the U.S. government's official web portal to all federal, state and local government web resources and services.